sensor_id;sensor_type;location;lat;lon;timestamp;pressure;altitude;pressure_sealevel;temperature;humidity
80397;BME280;69721;55.894;-3.052;2024-01-11T00:01:20;103505.73;;;11.48;47.24
80397;BME280;69721;55.894;-3.052;2024-01-11T00:03:46;103509.40;;;10.28;48.71
80397;BME280;69721;55.894;-3.052;2024-01-11T00:06:11;103512.21;;;10.00;50.13
80397;BME280;69721;55.894;-3.052;2024-01-11T00:08:37;103511.46;;;9.66;50.78
80397;BME280;69721;55.894;-3.052;2024-01-11T00:11:02;103516.48;;;9.12;50.65
80397;BME280;69721;55.894;-3.052;2024-01-11T00:13:27;103522.12;;;8.78;52.75
80397;BME280;69721;55.894;-3.052;2024-01-11T00:15:53;103528.95;;;6.46;57.52
80397;BME280;69721;55.894;-3.052;2024-01-11T00:18:19;103532.25;;;6.51;58.05
80397;BME280;69721;55.894;-3.052;2024-01-11T00:20:45;103530.46;;;6.91;58.23
80397;BME280;69721;55.894;-3.052;2024-01-11T00:23:10;103536.50;;;5.21;62.01
80397;BME280;69721;55.894;-3.052;2024-01-11T00:25:36;103539.14;;;4.54;65.66
80397;BME280;69721;55.894;-3.052;2024-01-11T00:28:02;103528.23;;;6.98;59.51
80397;BME280;69721;55.894;-3.052;2024-01-11T00:30:27;103534.04;;;5.93;62.74
80397;BME280;69721;55.894;-3.052;2024-01-11T00:32:53;103533.41;;;6.23;62.36
80397;BME280;69721;55.894;-3.052;2024-01-11T00:35:19;103531.88;;;7.26;59.34
80397;BME280;69721;55.894;-3.052;2024-01-11T00:37:44;103535.41;;;6.45;62.94
80397;BME280;69721;55.894;-3.052;2024-01-11T00:40:10;103538.51;;;5.65;63.75
80397;BME280;69721;55.894;-3.052;2024-01-11T00:42:36;103542.02;;;3.53;71.28
80397;BME280;69721;55.894;-3.052;2024-01-11T00:45:01;103542.67;;;3.17;74.33
80397;BME280;69721;55.894;-3.052;2024-01-11T00:47:27;103542.05;;;3.94;71.46
80397;BME280;69721;55.894;-3.052;2024-01-11T00:49:53;103539.14;;;3.31;72.10
80397;BME280;69721;55.894;-3.052;2024-01-11T00:52:18;103538.34;;;4.63;68.12
80397;BME280;69721;55.894;-3.052;2024-01-11T00:54:43;103542.23;;;4.56;66.55
80397;BME280;69721;55.894;-3.052;2024-01-11T00:57:09;103539.55;;;5.43;66.36
80397;BME280;69721;55.894;-3.052;2024-01-11T00:59:35;103541.19;;;7.27;60.21
80397;BME280;69721;55.894;-3.052;2024-01-11T01:02:00;103540.90;;;7.44;58.70
80397;BME280;69721;55.894;-3.052;2024-01-11T01:04:26;103547.46;;;7.65;57.93
80397;BME280;69721;55.894;-3.052;2024-01-11T01:06:51;103544.65;;;7.31;58.41
80397;BME280;69721;55.894;-3.052;2024-01-11T01:09:17;103546.27;;;5.95;61.43
80397;BME280;69721;55.894;-3.052;2024-01-11T01:11:42;103545.82;;;8.41;56.34
80397;BME280;69721;55.894;-3.052;2024-01-11T01:14:08;103542.51;;;8.60;54.10
80397;BME280;69721;55.894;-3.052;2024-01-11T01:16:33;103541.63;;;8.12;55.46
80397;BME280;69721;55.894;-3.052;2024-01-11T01:18:59;103549.40;;;6.65;58.23
80397;BME280;69721;55.894;-3.052;2024-01-11T01:21:24;103550.50;;;7.30;56.58
80397;BME280;69721;55.894;-3.052;2024-01-11T01:23:50;103545.73;;;8.59;53.92
80397;BME280;69721;55.894;-3.052;2024-01-11T01:26:15;103547.19;;;7.67;54.23
80397;BME280;69721;55.894;-3.052;2024-01-11T01:28:41;103546.74;;;6.37;57.88
80397;BME280;69721;55.894;-3.052;2024-01-11T01:31:06;103539.40;;;7.02;56.80
80397;BME280;69721;55.894;-3.052;2024-01-11T01:33:32;103546.76;;;4.69;64.07
80397;BME280;69721;55.894;-3.052;2024-01-11T01:35:57;103546.18;;;4.52;66.31
80397;BME280;69721;55.894;-3.052;2024-01-11T01:38:23;103544.89;;;4.80;64.13
80397;BME280;69721;55.894;-3.052;2024-01-11T01:40:48;103549.10;;;4.48;65.74
80397;BME280;69721;55.894;-3.052;2024-01-11T01:43:13;103544.96;;;4.71;66.55
80397;BME280;69721;55.894;-3.052;2024-01-11T01:45:39;103539.05;;;6.86;61.00
80397;BME280;69721;55.894;-3.052;2024-01-11T01:48:05;103540.09;;;5.36;63.27
80397;BME280;69721;55.894;-3.052;2024-01-11T01:50:31;103540.00;;;6.89;59.80
80397;BME280;69721;55.894;-3.052;2024-01-11T01:52:55;103543.78;;;5.37;62.48
80397;BME280;69721;55.894;-3.052;2024-01-11T01:55:22;103547.57;;;4.74;65.53
80397;BME280;69721;55.894;-3.052;2024-01-11T01:57:47;103548.45;;;5.92;61.74
80397;BME280;69721;55.894;-3.052;2024-01-11T02:00:12;103546.45;;;7.22;59.55
80397;BME280;69721;55.894;-3.052;2024-01-11T02:02:38;103561.02;;;4.13;68.04
80397;BME280;69721;55.894;-3.052;2024-01-11T02:05:03;103563.53;;;3.96;70.05
80397;BME280;69721;55.894;-3.052;2024-01-11T02:07:29;103557.46;;;6.03;64.39
80397;BME280;69721;55.894;-3.052;2024-01-11T02:09:54;103561.47;;;4.66;67.28
80397;BME280;69721;55.894;-3.052;2024-01-11T02:12:20;103566.58;;;3.47;72.79
80397;BME280;69721;55.894;-3.052;2024-01-11T02:14:45;103562.97;;;3.73;71.59
80397;BME280;69721;55.894;-3.052;2024-01-11T02:17:10;103564.46;;;4.49;69.16
80397;BME280;69721;55.894;-3.052;2024-01-11T02:19:36;103567.63;;;4.52;68.97
80397;BME280;69721;55.894;-3.052;2024-01-11T02:22:08;103570.07;;;4.54;69.55
80397;BME280;69721;55.894;-3.052;2024-01-11T02:24:27;103575.40;;;4.31;69.79
80397;BME280;69721;55.894;-3.052;2024-01-11T02:26:58;103575.57;;;4.41;69.53
80397;BME280;69721;55.894;-3.052;2024-01-11T02:29:18;103577.94;;;4.28;69.78
80397;BME280;69721;55.894;-3.052;2024-01-11T02:31:44;103574.73;;;5.15;68.36
80397;BME280;69721;55.894;-3.052;2024-01-11T02:34:10;103581.61;;;4.68;68.36
80397;BME280;69721;55.894;-3.052;2024-01-11T02:36:35;103569.12;;;5.97;64.85
80397;BME280;69721;55.894;-3.052;2024-01-11T02:39:01;103567.96;;;5.81;63.78
80397;BME280;69721;55.894;-3.052;2024-01-11T02:41:26;103569.94;;;5.72;63.99
80397;BME280;69721;55.894;-3.052;2024-01-11T02:43:52;103570.18;;;5.93;63.30
80397;BME280;69721;55.894;-3.052;2024-01-11T02:46:17;103571.76;;;7.06;60.58
80397;BME280;69721;55.894;-3.052;2024-01-11T02:48:43;103566.12;;;7.39;59.70
80397;BME280;69721;55.894;-3.052;2024-01-11T02:51:09;103574.52;;;5.72;63.28
80397;BME280;69721;55.894;-3.052;2024-01-11T02:53:34;103593.36;;;4.42;67.72
80397;BME280;69721;55.894;-3.052;2024-01-11T02:56:00;103596.87;;;4.34;68.13
80397;BME280;69721;55.894;-3.052;2024-01-11T02:58:25;103591.30;;;5.45;65.97
80397;BME280;69721;55.894;-3.052;2024-01-11T03:00:51;103599.23;;;4.12;70.74
80397;BME280;69721;55.894;-3.052;2024-01-11T03:03:16;103599.67;;;3.04;73.51
80397;BME280;69721;55.894;-3.052;2024-01-11T03:05:42;103600.72;;;3.60;72.84
80397;BME280;69721;55.894;-3.052;2024-01-11T03:08:07;103601.40;;;4.40;70.45
80397;BME280;69721;55.894;-3.052;2024-01-11T03:10:33;103597.76;;;3.74;70.66
80397;BME280;69721;55.894;-3.052;2024-01-11T03:12:59;103604.77;;;3.44;71.47
80397;BME280;69721;55.894;-3.052;2024-01-11T03:15:24;103609.47;;;4.03;70.51
80397;BME280;69721;55.894;-3.052;2024-01-11T03:17:49;103610.87;;;3.87;71.01
80397;BME280;69721;55.894;-3.052;2024-01-11T03:20:15;103615.75;;;3.95;72.37
80397;BME280;69721;55.894;-3.052;2024-01-11T03:22:45;103615.08;;;3.50;72.53
80397;BME280;69721;55.894;-3.052;2024-01-11T03:25:06;103617.37;;;2.93;74.17
80397;BME280;69721;55.894;-3.052;2024-01-11T03:27:32;103615.96;;;3.36;72.01
80397;BME280;69721;55.894;-3.052;2024-01-11T03:29:57;103615.66;;;3.48;73.13
80397;BME280;69721;55.894;-3.052;2024-01-11T03:32:23;103615.86;;;4.62;70.52
80397;BME280;69721;55.894;-3.052;2024-01-11T03:34:49;103615.77;;;3.96;71.26
80397;BME280;69721;55.894;-3.052;2024-01-11T03:37:14;103614.44;;;4.11;70.26
80397;BME280;69721;55.894;-3.052;2024-01-11T03:39:40;103614.06;;;3.93;70.89
80397;BME280;69721;55.894;-3.052;2024-01-11T03:42:05;103614.90;;;3.50;71.71
80397;BME280;69721;55.894;-3.052;2024-01-11T03:44:31;103616.31;;;3.42;73.90
80397;BME280;69721;55.894;-3.052;2024-01-11T03:46:56;103618.35;;;2.80;76.06
80397;BME280;69721;55.894;-3.052;2024-01-11T03:49:22;103613.10;;;2.38;78.77
80397;BME280;69721;55.894;-3.052;2024-01-11T03:51:47;103611.51;;;2.09;78.55
80397;BME280;69721;55.894;-3.052;2024-01-11T03:54:13;103616.19;;;2.45;77.41
80397;BME280;69721;55.894;-3.052;2024-01-11T03:56:39;103610.93;;;3.57;76.57
80397;BME280;69721;55.894;-3.052;2024-01-11T03:59:04;103615.09;;;2.83;76.00
80397;BME280;69721;55.894;-3.052;2024-01-11T04:01:30;103616.92;;;3.15;76.93
80397;BME280;69721;55.894;-3.052;2024-01-11T04:03:56;103619.20;;;2.89;76.63
80397;BME280;69721;55.894;-3.052;2024-01-11T04:06:22;103619.67;;;2.58;77.39
80397;BME280;69721;55.894;-3.052;2024-01-11T04:08:47;103621.78;;;3.48;74.56
80397;BME280;69721;55.894;-3.052;2024-01-11T04:11:13;103610.20;;;3.85;72.59
80397;BME280;69721;55.894;-3.052;2024-01-11T04:13:39;103616.07;;;3.23;74.50
80397;BME280;69721;55.894;-3.052;2024-01-11T04:16:04;103617.59;;;2.83;76.91
80397;BME280;69721;55.894;-3.052;2024-01-11T04:18:29;103618.37;;;2.26;78.72
80397;BME280;69721;55.894;-3.052;2024-01-11T04:20:56;103617.95;;;2.64;77.23
80397;BME280;69721;55.894;-3.052;2024-01-11T04:23:21;103623.04;;;3.30;74.34
80397;BME280;69721;55.894;-3.052;2024-01-11T04:25:47;103628.12;;;3.59;72.86
80397;BME280;69721;55.894;-3.052;2024-01-11T04:28:13;103631.84;;;3.11;73.67
80397;BME280;69721;55.894;-3.052;2024-01-11T04:30:38;103630.47;;;2.63;76.96
80397;BME280;69721;55.894;-3.052;2024-01-11T04:33:04;103636.17;;;3.08;76.03
80397;BME280;69721;55.894;-3.052;2024-01-11T04:35:29;103631.66;;;3.79;74.43
80397;BME280;69721;55.894;-3.052;2024-01-11T04:37:55;103631.07;;;4.18;71.24
80397;BME280;69721;55.894;-3.052;2024-01-11T04:40:20;103635.40;;;2.85;73.76
80397;BME280;69721;55.894;-3.052;2024-01-11T04:42:46;103633.80;;;2.91;75.41
80397;BME280;69721;55.894;-3.052;2024-01-11T04:45:11;103631.85;;;3.30;72.80
80397;BME280;69721;55.894;-3.052;2024-01-11T04:47:37;103636.15;;;1.88;78.92
80397;BME280;69721;55.894;-3.052;2024-01-11T04:50:03;103640.27;;;2.17;79.13
80397;BME280;69721;55.894;-3.052;2024-01-11T04:52:28;103629.34;;;2.65;78.07
80397;BME280;69721;55.894;-3.052;2024-01-11T04:54:54;103632.06;;;2.53;78.46
80397;BME280;69721;55.894;-3.052;2024-01-11T04:57:19;103624.07;;;2.21;78.74
80397;BME280;69721;55.894;-3.052;2024-01-11T04:59:45;103636.29;;;2.12;79.78
80397;BME280;69721;55.894;-3.052;2024-01-11T05:02:10;103633.43;;;2.45;78.26
80397;BME280;69721;55.894;-3.052;2024-01-11T05:04:36;103629.11;;;4.11;72.68
80397;BME280;69721;55.894;-3.052;2024-01-11T05:07:01;103634.47;;;2.47;76.41
80397;BME280;69721;55.894;-3.052;2024-01-11T05:09:27;103637.05;;;2.54;76.37
80397;BME280;69721;55.894;-3.052;2024-01-11T05:11:53;103634.64;;;3.80;73.56
80397;BME280;69721;55.894;-3.052;2024-01-11T05:14:18;103639.72;;;4.04;71.55
80397;BME280;69721;55.894;-3.052;2024-01-11T05:16:44;103644.26;;;2.30;76.63
80397;BME280;69721;55.894;-3.052;2024-01-11T05:19:09;103645.50;;;2.22;79.96
80397;BME280;69721;55.894;-3.052;2024-01-11T05:21:35;103643.16;;;3.20;74.59
80397;BME280;69721;55.894;-3.052;2024-01-11T05:24:00;103643.34;;;2.32;77.82
80397;BME280;69721;55.894;-3.052;2024-01-11T05:26:26;103646.32;;;2.01;78.47
80397;BME280;69721;55.894;-3.052;2024-01-11T05:28:51;103636.51;;;4.21;73.16
80397;BME280;69721;55.894;-3.052;2024-01-11T05:31:17;103643.62;;;4.63;68.73
80397;BME280;69721;55.894;-3.052;2024-01-11T05:33:43;103646.36;;;3.63;71.79
80397;BME280;69721;55.894;-3.052;2024-01-11T05:36:08;103648.95;;;3.10;73.65
80397;BME280;69721;55.894;-3.052;2024-01-11T05:38:34;103649.12;;;2.74;75.18
80397;BME280;69721;55.894;-3.052;2024-01-11T05:40:59;103650.08;;;3.12;75.16
80397;BME280;69721;55.894;-3.052;2024-01-11T05:43:26;103654.66;;;4.30;71.71
80397;BME280;69721;55.894;-3.052;2024-01-11T05:45:51;103651.99;;;2.63;74.15
80397;BME280;69721;55.894;-3.052;2024-01-11T05:48:17;103644.94;;;3.81;71.21
80397;BME280;69721;55.894;-3.052;2024-01-11T05:50:42;103643.84;;;3.76;72.83
80397;BME280;69721;55.894;-3.052;2024-01-11T05:53:08;103645.16;;;2.88;72.77
80397;BME280;69721;55.894;-3.052;2024-01-11T05:55:33;103637.05;;;3.33;71.28
80397;BME280;69721;55.894;-3.052;2024-01-11T05:57:58;103639.66;;;4.26;69.83
80397;BME280;69721;55.894;-3.052;2024-01-11T06:00:24;103641.08;;;4.43;69.05
80397;BME280;69721;55.894;-3.052;2024-01-11T06:02:49;103643.31;;;3.53;72.29
80397;BME280;69721;55.894;-3.052;2024-01-11T06:05:15;103642.41;;;3.46;71.74
80397;BME280;69721;55.894;-3.052;2024-01-11T06:07:41;103643.65;;;3.26;73.17
80397;BME280;69721;55.894;-3.052;2024-01-11T06:10:07;103642.08;;;3.66;72.53
80397;BME280;69721;55.894;-3.052;2024-01-11T06:12:32;103653.43;;;2.92;73.33
80397;BME280;69721;55.894;-3.052;2024-01-11T06:14:58;103658.74;;;3.25;72.05
80397;BME280;69721;55.894;-3.052;2024-01-11T06:17:23;103658.75;;;2.65;76.58
80397;BME280;69721;55.894;-3.052;2024-01-11T06:19:48;103651.33;;;4.01;71.72
80397;BME280;69721;55.894;-3.052;2024-01-11T06:22:14;103658.08;;;1.69;78.20
80397;BME280;69721;55.894;-3.052;2024-01-11T06:24:40;103656.04;;;2.04;78.89
80397;BME280;69721;55.894;-3.052;2024-01-11T06:27:06;103652.00;;;2.57;76.18
80397;BME280;69721;55.894;-3.052;2024-01-11T06:29:31;103654.76;;;4.01;71.97
80397;BME280;69721;55.894;-3.052;2024-01-11T06:31:57;103663.16;;;3.67;71.50
80397;BME280;69721;55.894;-3.052;2024-01-11T06:34:22;103667.90;;;2.10;77.20
80397;BME280;69721;55.894;-3.052;2024-01-11T06:36:48;103673.53;;;2.97;74.41
80397;BME280;69721;55.894;-3.052;2024-01-11T06:39:13;103675.60;;;2.76;73.83
80397;BME280;69721;55.894;-3.052;2024-01-11T06:41:39;103681.39;;;2.10;77.45
80397;BME280;69721;55.894;-3.052;2024-01-11T06:44:05;103683.83;;;3.00;76.31
80397;BME280;69721;55.894;-3.052;2024-01-11T06:46:30;103689.13;;;2.94;74.72
80397;BME280;69721;55.894;-3.052;2024-01-11T06:48:55;103692.10;;;2.76;75.26
80397;BME280;69721;55.894;-3.052;2024-01-11T06:51:21;103701.19;;;3.80;71.86
80397;BME280;69721;55.894;-3.052;2024-01-11T06:53:47;103710.21;;;2.34;75.16
80397;BME280;69721;55.894;-3.052;2024-01-11T06:56:14;103709.12;;;2.30;75.68
80397;BME280;69721;55.894;-3.052;2024-01-11T06:58:37;103706.96;;;3.81;71.88
80397;BME280;69721;55.894;-3.052;2024-01-11T07:01:03;103706.33;;;3.19;72.64
80397;BME280;69721;55.894;-3.052;2024-01-11T07:03:28;103711.32;;;2.73;76.67
80397;BME280;69721;55.894;-3.052;2024-01-11T07:05:54;103714.32;;;2.45;76.40
80397;BME280;69721;55.894;-3.052;2024-01-11T07:08:19;103716.32;;;3.21;74.37
80397;BME280;69721;55.894;-3.052;2024-01-11T07:10:45;103724.96;;;2.48;75.76
80397;BME280;69721;55.894;-3.052;2024-01-11T07:13:11;103725.34;;;2.05;78.00
80397;BME280;69721;55.894;-3.052;2024-01-11T07:15:36;103735.85;;;1.85;77.91
80397;BME280;69721;55.894;-3.052;2024-01-11T07:18:02;103736.40;;;1.59;79.35
80397;BME280;69721;55.894;-3.052;2024-01-11T07:20:28;103728.28;;;2.97;76.44
80397;BME280;69721;55.894;-3.052;2024-01-11T07:22:53;103730.55;;;2.57;76.43
80397;BME280;69721;55.894;-3.052;2024-01-11T07:25:18;103739.43;;;1.38;79.85
80397;BME280;69721;55.894;-3.052;2024-01-11T07:27:44;103743.80;;;1.72;82.16
80397;BME280;69721;55.894;-3.052;2024-01-11T07:30:12;103745.99;;;1.41;81.22
80397;BME280;69721;55.894;-3.052;2024-01-11T07:32:35;103742.13;;;2.58;77.83
80397;BME280;69721;55.894;-3.052;2024-01-11T07:35:01;103747.65;;;2.43;77.00
80397;BME280;69721;55.894;-3.052;2024-01-11T07:37:26;103753.28;;;2.12;80.87
80397;BME280;69721;55.894;-3.052;2024-01-11T07:39:52;103755.42;;;1.44;80.57
80397;BME280;69721;55.894;-3.052;2024-01-11T07:42:17;103749.83;;;3.85;73.78
80397;BME280;69721;55.894;-3.052;2024-01-11T07:44:43;103749.97;;;3.37;72.07
80397;BME280;69721;55.894;-3.052;2024-01-11T07:47:08;103755.40;;;2.37;75.42
80397;BME280;69721;55.894;-3.052;2024-01-11T07:49:34;103756.78;;;3.16;73.02
80397;BME280;69721;55.894;-3.052;2024-01-11T07:52:00;103761.60;;;3.02;73.11
80397;BME280;69721;55.894;-3.052;2024-01-11T07:54:25;103765.71;;;3.06;72.24
80397;BME280;69721;55.894;-3.052;2024-01-11T07:56:51;103779.25;;;2.14;75.92
80397;BME280;69721;55.894;-3.052;2024-01-11T07:59:16;103778.58;;;2.79;74.85
80397;BME280;69721;55.894;-3.052;2024-01-11T08:01:43;103783.27;;;2.63;74.42
80397;BME280;69721;55.894;-3.052;2024-01-11T08:04:07;103785.08;;;2.47;75.74
80397;BME280;69721;55.894;-3.052;2024-01-11T08:06:33;103783.41;;;2.83;73.77
80397;BME280;69721;55.894;-3.052;2024-01-11T08:08:58;103781.66;;;3.19;73.35
80397;BME280;69721;55.894;-3.052;2024-01-11T08:11:24;103792.39;;;2.64;74.61
80397;BME280;69721;55.894;-3.052;2024-01-11T08:13:50;103804.28;;;1.73;77.36
80397;BME280;69721;55.894;-3.052;2024-01-11T08:16:16;103796.36;;;3.12;75.74
80397;BME280;69721;55.894;-3.052;2024-01-11T08:18:41;103805.81;;;2.16;76.14
80397;BME280;69721;55.894;-3.052;2024-01-11T08:21:06;103807.11;;;2.31;75.40
80397;BME280;69721;55.894;-3.052;2024-01-11T08:23:32;103800.67;;;2.61;74.51
80397;BME280;69721;55.894;-3.052;2024-01-11T08:25:57;103805.38;;;2.27;75.97
80397;BME280;69721;55.894;-3.052;2024-01-11T08:28:23;103805.99;;;2.47;74.70
80397;BME280;69721;55.894;-3.052;2024-01-11T08:30:49;103812.26;;;1.19;77.45
80397;BME280;69721;55.894;-3.052;2024-01-11T08:33:14;103814.84;;;1.84;78.52
80397;BME280;69721;55.894;-3.052;2024-01-11T08:35:40;103811.94;;;1.48;79.49
80397;BME280;69721;55.894;-3.052;2024-01-11T08:38:05;103819.40;;;1.78;77.01
80397;BME280;69721;55.894;-3.052;2024-01-11T08:40:31;103819.21;;;1.94;76.14
80397;BME280;69721;55.894;-3.052;2024-01-11T08:42:57;103815.79;;;2.44;74.44
80397;BME280;69721;55.894;-3.052;2024-01-11T08:45:22;103821.74;;;2.02;74.70
80397;BME280;69721;55.894;-3.052;2024-01-11T08:47:48;103823.38;;;1.37;77.98
80397;BME280;69721;55.894;-3.052;2024-01-11T08:50:15;103827.47;;;1.72;78.16
80397;BME280;69721;55.894;-3.052;2024-01-11T08:52:40;103828.27;;;1.38;77.48
80397;BME280;69721;55.894;-3.052;2024-01-11T08:55:06;103826.28;;;1.51;77.33
80397;BME280;69721;55.894;-3.052;2024-01-11T08:57:31;103830.46;;;1.07;80.42
80397;BME280;69721;55.894;-3.052;2024-01-11T08:59:56;103832.29;;;1.27;80.55
80397;BME280;69721;55.894;-3.052;2024-01-11T09:02:22;103833.98;;;1.96;78.60
80397;BME280;69721;55.894;-3.052;2024-01-11T09:04:48;103834.48;;;2.61;75.56
80397;BME280;69721;55.894;-3.052;2024-01-11T09:07:13;103845.15;;;1.55;79.21
80397;BME280;69721;55.894;-3.052;2024-01-11T09:09:41;103843.62;;;1.94;77.73
80397;BME280;69721;55.894;-3.052;2024-01-11T09:12:05;103839.46;;;1.98;77.30
80397;BME280;69721;55.894;-3.052;2024-01-11T09:14:30;103838.43;;;1.72;76.92
80397;BME280;69721;55.894;-3.052;2024-01-11T09:16:55;103840.02;;;1.36;78.56
80397;BME280;69721;55.894;-3.052;2024-01-11T09:19:21;103829.44;;;4.23;70.71
80397;BME280;69721;55.894;-3.052;2024-01-11T09:21:47;103833.44;;;2.65;72.38
80397;BME280;69721;55.894;-3.052;2024-01-11T09:24:12;103833.61;;;2.71;72.76
80397;BME280;69721;55.894;-3.052;2024-01-11T09:26:37;103835.25;;;2.39;73.11
80397;BME280;69721;55.894;-3.052;2024-01-11T09:29:03;103833.42;;;3.12;72.01
80397;BME280;69721;55.894;-3.052;2024-01-11T09:31:28;103835.30;;;2.61;72.60
80397;BME280;69721;55.894;-3.052;2024-01-11T09:33:53;103836.11;;;2.59;71.59
80397;BME280;69721;55.894;-3.052;2024-01-11T09:36:19;103840.50;;;2.96;72.00
80397;BME280;69721;55.894;-3.052;2024-01-11T09:38:44;103836.90;;;3.90;68.52
80397;BME280;69721;55.894;-3.052;2024-01-11T09:41:12;103841.69;;;3.39;69.78
80397;BME280;69721;55.894;-3.052;2024-01-11T09:43:36;103845.85;;;2.75;69.72
80397;BME280;69721;55.894;-3.052;2024-01-11T09:46:04;103852.60;;;2.34;72.45
80397;BME280;69721;55.894;-3.052;2024-01-11T09:48:27;103858.78;;;1.99;75.03
80397;BME280;69721;55.894;-3.052;2024-01-11T09:50:52;103863.42;;;1.86;74.69
80397;BME280;69721;55.894;-3.052;2024-01-11T09:53:18;103860.28;;;2.44;73.42
80397;BME280;69721;55.894;-3.052;2024-01-11T09:55:43;103864.65;;;2.00;74.31
80397;BME280;69721;55.894;-3.052;2024-01-11T09:58:09;103865.37;;;1.69;77.31
80397;BME280;69721;55.894;-3.052;2024-01-11T10:00:34;103865.19;;;1.63;77.29
80397;BME280;69721;55.894;-3.052;2024-01-11T10:03:00;103861.40;;;2.60;73.02
80397;BME280;69721;55.894;-3.052;2024-01-11T10:05:25;103866.20;;;2.08;74.82
80397;BME280;69721;55.894;-3.052;2024-01-11T10:07:51;103875.48;;;1.25;76.72
80397;BME280;69721;55.894;-3.052;2024-01-11T10:10:17;103863.10;;;2.81;73.29
80397;BME280;69721;55.894;-3.052;2024-01-11T10:12:42;103861.07;;;2.70;71.92
80397;BME280;69721;55.894;-3.052;2024-01-11T10:15:09;103861.86;;;2.99;69.74
80397;BME280;69721;55.894;-3.052;2024-01-11T10:17:33;103857.37;;;3.07;69.36
80397;BME280;69721;55.894;-3.052;2024-01-11T10:19:59;103860.42;;;2.70;71.37
80397;BME280;69721;55.894;-3.052;2024-01-11T10:22:24;103855.61;;;3.02;70.84
80397;BME280;69721;55.894;-3.052;2024-01-11T10:24:50;103849.39;;;4.18;67.67
80397;BME280;69721;55.894;-3.052;2024-01-11T10:27:15;103847.34;;;3.85;67.13
80397;BME280;69721;55.894;-3.052;2024-01-11T10:29:42;103849.95;;;3.63;68.65
80397;BME280;69721;55.894;-3.052;2024-01-11T10:32:07;103850.74;;;4.01;67.19
80397;BME280;69721;55.894;-3.052;2024-01-11T10:34:33;103857.29;;;2.91;70.58
80397;BME280;69721;55.894;-3.052;2024-01-11T10:36:59;103856.59;;;4.07;67.60
80397;BME280;69721;55.894;-3.052;2024-01-11T10:39:26;103852.77;;;4.32;66.85
80397;BME280;69721;55.894;-3.052;2024-01-11T10:41:56;103859.82;;;3.42;68.88
80397;BME280;69721;55.894;-3.052;2024-01-11T10:44:22;103858.70;;;4.73;65.38
80397;BME280;69721;55.894;-3.052;2024-01-11T10:46:49;103861.82;;;4.96;63.97
80397;BME280;69721;55.894;-3.052;2024-01-11T10:49:10;103862.61;;;3.02;68.68
80397;BME280;69721;55.894;-3.052;2024-01-11T10:51:35;103862.44;;;4.48;65.53
80397;BME280;69721;55.894;-3.052;2024-01-11T10:54:01;103867.37;;;2.26;71.08
80397;BME280;69721;55.894;-3.052;2024-01-11T10:56:25;103871.54;;;1.93;73.81
80397;BME280;69721;55.894;-3.052;2024-01-11T10:58:52;103856.72;;;3.65;68.92
80397;BME280;69721;55.894;-3.052;2024-01-11T11:01:20;103860.33;;;3.25;68.24
80397;BME280;69721;55.894;-3.052;2024-01-11T11:03:48;103862.59;;;3.53;69.27
80397;BME280;69721;55.894;-3.052;2024-01-11T11:06:12;103862.73;;;4.64;65.14
80397;BME280;69721;55.894;-3.052;2024-01-11T11:08:33;103868.78;;;3.30;68.21
80397;BME280;69721;55.894;-3.052;2024-01-11T11:10:58;103865.98;;;5.58;64.29
80397;BME280;69721;55.894;-3.052;2024-01-11T11:13:23;103866.67;;;6.65;59.25
80397;BME280;69721;55.894;-3.052;2024-01-11T11:15:48;103875.62;;;4.87;62.61
80397;BME280;69721;55.894;-3.052;2024-01-11T11:18:14;103885.36;;;3.38;67.98
80397;BME280;69721;55.894;-3.052;2024-01-11T11:20:39;103889.55;;;4.72;65.00
80397;BME280;69721;55.894;-3.052;2024-01-11T11:23:05;103890.73;;;3.71;67.71
80397;BME280;69721;55.894;-3.052;2024-01-11T11:25:30;103889.68;;;4.18;66.66
80397;BME280;69721;55.894;-3.052;2024-01-11T11:27:56;103878.58;;;3.71;67.53
80397;BME280;69721;55.894;-3.052;2024-01-11T11:30:21;103879.05;;;3.54;67.69
80397;BME280;69721;55.894;-3.052;2024-01-11T11:32:47;103885.07;;;4.08;66.90
80397;BME280;69721;55.894;-3.052;2024-01-11T11:35:12;103883.79;;;3.73;67.53
80397;BME280;69721;55.894;-3.052;2024-01-11T11:37:38;103888.48;;;3.40;69.45
80397;BME280;69721;55.894;-3.052;2024-01-11T11:40:04;103897.52;;;2.85;71.58
80397;BME280;69721;55.894;-3.052;2024-01-11T11:42:31;103894.43;;;4.18;68.00
80397;BME280;69721;55.894;-3.052;2024-01-11T11:44:54;103891.64;;;4.39;67.01
80397;BME280;69721;55.894;-3.052;2024-01-11T11:47:21;103898.18;;;3.10;69.73
80397;BME280;69721;55.894;-3.052;2024-01-11T11:52:14;103907.98;;;1.60;75.97
80397;BME280;69721;55.894;-3.052;2024-01-11T11:54:39;103902.66;;;2.44;72.92
80397;BME280;69721;55.894;-3.052;2024-01-11T11:57:04;103899.94;;;3.02;71.71
80397;BME280;69721;55.894;-3.052;2024-01-11T11:59:29;103896.66;;;3.53;68.23
80397;BME280;69721;55.894;-3.052;2024-01-11T12:01:54;103897.44;;;2.78;71.40
80397;BME280;69721;55.894;-3.052;2024-01-11T12:04:20;103900.11;;;2.49;70.81
80397;BME280;69721;55.894;-3.052;2024-01-11T12:06:46;103896.11;;;4.19;67.58
80397;BME280;69721;55.894;-3.052;2024-01-11T12:09:11;103892.38;;;3.96;67.04
80397;BME280;69721;55.894;-3.052;2024-01-11T12:11:37;103896.29;;;3.12;68.07
80397;BME280;69721;55.894;-3.052;2024-01-11T12:14:02;103900.71;;;2.33;70.64
80397;BME280;69721;55.894;-3.052;2024-01-11T12:16:28;103894.09;;;3.63;66.83
80397;BME280;69721;55.894;-3.052;2024-01-11T12:18:53;103888.85;;;5.03;63.46
80397;BME280;69721;55.894;-3.052;2024-01-11T12:21:19;103890.99;;;4.55;64.02
80397;BME280;69721;55.894;-3.052;2024-01-11T12:23:44;103894.54;;;3.98;64.67
80397;BME280;69721;55.894;-3.052;2024-01-11T12:26:09;103902.07;;;4.70;64.11
80397;BME280;69721;55.894;-3.052;2024-01-11T12:28:35;103901.31;;;4.13;64.53
80397;BME280;69721;55.894;-3.052;2024-01-11T12:31:00;103896.59;;;4.93;62.44
80397;BME280;69721;55.894;-3.052;2024-01-11T12:33:26;103892.16;;;5.36;60.29
80397;BME280;69721;55.894;-3.052;2024-01-11T12:35:51;103888.89;;;6.76;57.25
80397;BME280;69721;55.894;-3.052;2024-01-11T12:38:16;103881.51;;;8.26;53.44
80397;BME280;69721;55.894;-3.052;2024-01-11T12:40:41;103881.80;;;7.37;54.34
80397;BME280;69721;55.894;-3.052;2024-01-11T12:43:07;103890.22;;;4.26;61.09